»·PEaware :: SNW344 KLAS-KSAN

SNW344 :: KLAS-KSAN

FLIGHT INFORMATION

Flight Status: Arrived
Operator: Unknown
More flights by this operator :: More flights under this callsign
Pilot: Andrew D. (25626)
Aircraft: BOEING 737-800
(B738)
More flights by this aircraft type
Origin: KLAS McCarran Intl
United States
Destination: KSAN San Diego Intl-Lindbergh
United States
More flights between these airports :: More routes between these airports
Route: BOACH8 LVELL LUCKI1
File this flight plan on PilotEdge
Remarks: RMK / CALLSIGN "SUNWEST"
Altitude:
(Current/Filed)
28,000ft
Speed:
(Current/Filed)
428kts
Departed: 05-Nov-19 03:05 PM
Arrived: 05-Nov-19 03:47 PM
Distance/Time
Traveled:
225nm/0:42
Distance/Time
To Go:
Arrived

Flight Plot

Page will automatically refresh every two minutes.

Flight plan parsing failed; only flown route is shown


Map Options




Map Legend


Flown Route
Filed Route
Departure Airport
Arrival Airport
Navaid (VOR, NDB)
Fix

Horizontal Profiles

Position Reports

Time Latitude Longitude Heading Altitude Ground
Speed
05-Nov-19 14:35 36.083442 -115.138778 223 2189ft 0kts
05-Nov-19 14:36 36.083442 -115.138778 223 2189ft 0kts
05-Nov-19 14:37 36.083442 -115.138778 223 2189ft 0kts
05-Nov-19 14:38 36.083442 -115.138778 223 2189ft 0kts
05-Nov-19 14:39 36.083442 -115.138778 223 2189ft 0kts
05-Nov-19 14:40 36.083442 -115.138778 223 2189ft 0kts
05-Nov-19 14:41 36.083442 -115.138778 223 2189ft 0kts
05-Nov-19 14:42 36.083442 -115.138778 223 2189ft 0kts
05-Nov-19 14:43 36.083442 -115.138778 223 2189ft 0kts
05-Nov-19 14:44 36.083442 -115.138778 223 2189ft 0kts
05-Nov-19 14:45 36.083442 -115.138778 223 2189ft 0kts
05-Nov-19 14:46 36.083442 -115.138778 223 2189ft 0kts
05-Nov-19 14:47 36.083442 -115.138778 223 2189ft 0kts
05-Nov-19 14:48 36.083442 -115.138778 223 2189ft 0kts
05-Nov-19 14:49 36.083442 -115.138778 223 2189ft 0kts
05-Nov-19 14:50 36.083442 -115.138778 223 2189ft 0kts
05-Nov-19 14:51 36.083442 -115.138778 223 2189ft 0kts
05-Nov-19 14:52 36.083442 -115.138778 223 2189ft 0kts
05-Nov-19 14:53 36.083443 -115.138776 223 2189ft 0kts
05-Nov-19 14:54 36.083884 -115.138274 222 2189ft 2kts
05-Nov-19 14:55 36.084332 -115.137709 241 2189ft 2kts
05-Nov-19 14:56 36.084432 -115.137109 269 2189ft 0kts
05-Nov-19 14:57 36.084432 -115.137109 269 2189ft 0kts
05-Nov-19 14:58 36.084429 -115.138512 269 2189ft 10kts
05-Nov-19 14:59 36.082565 -115.141593 180 2189ft 14kts
05-Nov-19 15:00 36.078294 -115.141111 102 2189ft 16kts
05-Nov-19 15:01 36.078281 -115.134993 89 2189ft 19kts
05-Nov-19 15:02 36.078282 -115.127999 89 2189ft 20kts
05-Nov-19 15:03 36.077365 -115.121369 153 2189ft 19kts
05-Nov-19 15:04 36.076340 -115.142963 269 2206ft 162kts
05-Nov-19 15:05 36.076332 -115.204258 269 4567ft 208kts
05-Nov-19 15:06 36.045004 -115.273337 196 6526ft 281kts
05-Nov-19 15:07 35.970037 -115.300008 193 7044ft 282kts
05-Nov-19 15:08 35.890573 -115.311317 184 10402ft 294kts
05-Nov-19 15:09 35.800416 -115.309214 173 12559ft 350kts
05-Nov-19 15:10 35.701093 -115.297322 173 15573ft 367kts
05-Nov-19 15:11 35.596529 -115.297702 181 18310ft 384kts
05-Nov-19 15:12 35.487763 -115.302223 180 20853ft 397kts
05-Nov-19 15:13 35.375489 -115.306650 180 23097ft 410kts
05-Nov-19 15:14 35.261861 -115.311121 180 25735ft 405kts
05-Nov-19 15:15 35.149913 -115.315520 180 27981ft 404kts
05-Nov-19 15:16 35.037801 -115.319940 180 28061ft 399kts
05-Nov-19 15:17 34.921700 -115.324475 180 28066ft 437kts
05-Nov-19 15:18 34.795808 -115.332268 187 28068ft 468kts
05-Nov-19 15:19 34.670927 -115.378471 198 28077ft 469kts
05-Nov-19 15:20 34.548518 -115.432610 198 28087ft 469kts
05-Nov-19 15:21 34.425400 -115.486292 198 28096ft 469kts
05-Nov-19 15:22 34.304366 -115.545275 207 28105ft 472kts
05-Nov-19 15:23 34.190486 -115.624321 201 28084ft 471kts
05-Nov-19 15:24 34.068356 -115.682076 199 28074ft 471kts
05-Nov-19 15:25 33.946210 -115.739422 199 28057ft 470kts
05-Nov-19 15:26 33.824819 -115.798465 200 28031ft 471kts
05-Nov-19 15:27 33.704889 -115.855914 199 27087ft 450kts
05-Nov-19 15:28 33.589962 -115.909545 199 24766ft 437kts
05-Nov-19 15:29 33.491453 -115.987799 229 23360ft 438kts
05-Nov-19 15:30 33.421807 -116.105236 233 21336ft 426kts
05-Nov-19 15:31 33.354540 -116.219633 229 19458ft 412kts
05-Nov-19 15:32 33.262483 -116.294665 204 17618ft 396kts
05-Nov-19 15:33 33.165425 -116.351013 204 15826ft 379kts
05-Nov-19 15:34 33.073122 -116.404798 204 14151ft 350kts
05-Nov-19 15:35 32.990698 -116.458377 216 12557ft 331kts
05-Nov-19 15:36 32.921231 -116.529103 219 11133ft 329kts
05-Nov-19 15:37 32.851224 -116.599817 219 9645ft 330kts
05-Nov-19 15:38 32.782416 -116.670094 224 8159ft 314kts
05-Nov-19 15:39 32.739884 -116.749596 241 7826ft 258kts
05-Nov-19 15:40 32.706372 -116.821638 245 6592ft 246kts
05-Nov-19 15:41 32.683664 -116.896044 255 5247ft 242kts
05-Nov-19 15:42 32.682899 -116.974228 276 4026ft 224kts
05-Nov-19 15:43 32.697621 -117.042335 289 3010ft 221kts
05-Nov-19 15:44 32.714446 -117.110617 287 1508ft 200kts
05-Nov-19 15:45 32.727792 -117.165707 286 414ft 149kts
05-Nov-19 15:46 32.735264 -117.196851 280 23ft 23kts
05-Nov-19 15:47 32.734809 -117.202493 195 23ft 15kts
05-Nov-19 15:48 32.732368 -117.202798 200 23ft 0kts

Navigation Log

Ident Type
Flight plan parsing failed, navigation log unavailable